sensor_id;sensor_type;location;lat;lon;timestamp;pressure;altitude;pressure_sealevel;temperature;humidity
11077;BME280;5591;42.626;23.380;2023-04-30T00:01:20;93901.88;;;12.03;100.00
11077;BME280;5591;42.626;23.380;2023-04-30T00:03:48;93897.66;;;11.83;100.00
11077;BME280;5591;42.626;23.380;2023-04-30T00:06:15;93855.59;;;11.57;100.00
11077;BME280;5591;42.626;23.380;2023-04-30T00:08:42;93898.47;;;11.77;100.00
11077;BME280;5591;42.626;23.380;2023-04-30T00:11:08;93901.28;;;11.69;100.00
11077;BME280;5591;42.626;23.380;2023-04-30T00:13:35;93902.28;;;11.81;100.00
11077;BME280;5591;42.626;23.380;2023-04-30T00:16:02;93900.47;;;11.88;100.00
11077;BME280;5591;42.626;23.380;2023-04-30T00:18:29;93898.44;;;11.83;100.00
11077;BME280;5591;42.626;23.380;2023-04-30T00:20:57;93890.38;;;11.85;100.00
11077;BME280;5591;42.626;23.380;2023-04-30T00:23:24;93896.03;;;11.82;100.00
11077;BME280;5591;42.626;23.380;2023-04-30T00:25:51;93899.28;;;11.84;100.00
11077;BME280;5591;42.626;23.380;2023-04-30T00:28:17;93894.00;;;11.84;100.00
11077;BME280;5591;42.626;23.380;2023-04-30T00:30:44;93888.75;;;11.71;100.00
11077;BME280;5591;42.626;23.380;2023-04-30T00:33:11;93891.00;;;11.67;100.00
11077;BME280;5591;42.626;23.380;2023-04-30T00:35:38;93892.38;;;11.63;100.00
11077;BME280;5591;42.626;23.380;2023-04-30T00:38:06;93891.59;;;11.63;100.00
11077;BME280;5591;42.626;23.380;2023-04-30T00:40:33;93894.63;;;11.66;100.00
11077;BME280;5591;42.626;23.380;2023-04-30T00:43:00;93886.53;;;11.61;100.00
11077;BME280;5591;42.626;23.380;2023-04-30T00:45:27;93885.31;;;11.51;100.00
11077;BME280;5591;42.626;23.380;2023-04-30T00:47:54;93881.44;;;11.53;100.00
11077;BME280;5591;42.626;23.380;2023-04-30T00:50:21;93885.69;;;11.48;100.00
11077;BME280;5591;42.626;23.380;2023-04-30T00:52:48;93885.69;;;11.41;100.00
11077;BME280;5591;42.626;23.380;2023-04-30T00:55:16;93888.50;;;11.20;100.00
11077;BME280;5591;42.626;23.380;2023-04-30T00:57:44;93892.72;;;11.21;100.00
11077;BME280;5591;42.626;23.380;2023-04-30T01:00:12;93890.31;;;11.20;100.00
11077;BME280;5591;42.626;23.380;2023-04-30T01:02:39;93886.88;;;11.19;100.00
11077;BME280;5591;42.626;23.380;2023-04-30T01:05:06;93879.59;;;11.21;100.00
11077;BME280;5591;42.626;23.380;2023-04-30T01:07:34;93886.09;;;11.19;100.00
11077;BME280;5591;42.626;23.380;2023-04-30T01:10:03;93886.69;;;11.21;100.00
11077;BME280;5591;42.626;23.380;2023-04-30T01:12:45;93891.53;;;11.17;100.00
11077;BME280;5591;42.626;23.380;2023-04-30T01:15:22;93901.00;;;11.12;100.00
11077;BME280;5591;42.626;23.380;2023-04-30T01:17:55;93886.25;;;11.11;100.00
11077;BME280;5591;42.626;23.380;2023-04-30T01:20:22;93882.22;;;11.02;100.00
11077;BME280;5591;42.626;23.380;2023-04-30T01:23:06;93888.06;;;11.17;100.00
11077;BME280;5591;42.626;23.380;2023-04-30T01:25:59;93883.41;;;11.12;100.00
11077;BME280;5591;42.626;23.380;2023-04-30T01:28:33;93889.91;;;11.16;100.00
11077;BME280;5591;42.626;23.380;2023-04-30T01:31:01;93881.41;;;11.08;100.00
11077;BME280;5591;42.626;23.380;2023-04-30T01:33:28;93881.00;;;11.04;100.00
11077;BME280;5591;42.626;23.380;2023-04-30T01:39:05;93881.03;;;11.17;100.00
11077;BME280;5591;42.626;23.380;2023-04-30T01:41:46;93885.66;;;11.15;100.00
11077;BME280;5591;42.626;23.380;2023-04-30T01:44:25;93888.66;;;11.06;100.00
11077;BME280;5591;42.626;23.380;2023-04-30T01:46:59;93888.63;;;10.93;100.00
11077;BME280;5591;42.626;23.380;2023-04-30T01:49:39;93871.25;;;10.79;100.00
11077;BME280;5591;42.626;23.380;2023-04-30T01:52:14;93889.69;;;11.11;100.00
11077;BME280;5591;42.626;23.380;2023-04-30T01:54:44;93894.56;;;11.08;100.00
11077;BME280;5591;42.626;23.380;2023-04-30T01:57:17;93880.59;;;11.14;100.00
11077;BME280;5591;42.626;23.380;2023-04-30T01:59:48;93888.88;;;11.11;100.00
11077;BME280;5591;42.626;23.380;2023-04-30T02:02:16;93881.00;;;11.11;100.00
11077;BME280;5591;42.626;23.380;2023-04-30T02:04:43;93892.34;;;11.18;100.00
11077;BME280;5591;42.626;23.380;2023-04-30T02:07:10;93871.31;;;11.11;100.00
11077;BME280;5591;42.626;23.380;2023-04-30T02:09:38;93876.97;;;11.15;100.00
11077;BME280;5591;42.626;23.380;2023-04-30T02:12:05;93884.44;;;11.11;100.00
11077;BME280;5591;42.626;23.380;2023-04-30T02:14:32;93893.91;;;11.06;100.00
11077;BME280;5591;42.626;23.380;2023-04-30T02:17:00;93881.59;;;11.00;100.00
11077;BME280;5591;42.626;23.380;2023-04-30T02:19:27;93886.44;;;11.03;100.00
11077;BME280;5591;42.626;23.380;2023-04-30T02:21:53;93878.16;;;10.99;100.00
11077;BME280;5591;42.626;23.380;2023-04-30T02:24:20;93885.44;;;11.04;100.00
11077;BME280;5591;42.626;23.380;2023-04-30T02:26:47;93864.41;;;10.84;100.00
11077;BME280;5591;42.626;23.380;2023-04-30T02:29:14;93884.22;;;10.93;100.00
11077;BME280;5591;42.626;23.380;2023-04-30T02:31:41;93883.59;;;10.91;100.00
11077;BME280;5591;42.626;23.380;2023-04-30T02:34:09;93879.97;;;10.86;100.00
11077;BME280;5591;42.626;23.380;2023-04-30T02:36:36;93794.81;;;10.22;100.00
11077;BME280;5591;42.626;23.380;2023-04-30T02:39:03;93879.28;;;10.71;100.00
11077;BME280;5591;42.626;23.380;2023-04-30T02:41:30;93880.75;;;10.86;100.00
11077;BME280;5591;42.626;23.380;2023-04-30T02:43:57;93880.34;;;10.89;100.00
11077;BME280;5591;42.626;23.380;2023-04-30T02:46:24;93886.03;;;10.99;100.00
11077;BME280;5591;42.626;23.380;2023-04-30T02:48:50;93887.63;;;10.94;100.00
11077;BME280;5591;42.626;23.380;2023-04-30T02:51:18;93887.44;;;10.95;100.00
11077;BME280;5591;42.626;23.380;2023-04-30T02:53:45;93890.09;;;11.02;100.00
11077;BME280;5591;42.626;23.380;2023-04-30T02:56:12;93900.59;;;11.08;100.00
11077;BME280;5591;42.626;23.380;2023-04-30T02:58:39;93882.22;;;11.15;100.00
11077;BME280;5591;42.626;23.380;2023-04-30T03:01:05;93895.56;;;11.20;100.00
11077;BME280;5591;42.626;23.380;2023-04-30T03:03:32;93903.63;;;11.12;100.00
11077;BME280;5591;42.626;23.380;2023-04-30T03:05:59;93900.41;;;11.10;100.00
11077;BME280;5591;42.626;23.380;2023-04-30T03:08:27;93900.00;;;11.13;100.00
11077;BME280;5591;42.626;23.380;2023-04-30T03:10:54;93910.09;;;11.22;100.00
11077;BME280;5591;42.626;23.380;2023-04-30T03:13:20;93914.78;;;11.33;100.00
11077;BME280;5591;42.626;23.380;2023-04-30T03:15:56;93899.22;;;11.19;100.00
11077;BME280;5591;42.626;23.380;2023-04-30T03:18:22;93906.88;;;11.14;100.00
11077;BME280;5591;42.626;23.380;2023-04-30T03:20:49;93903.84;;;11.17;100.00
11077;BME280;5591;42.626;23.380;2023-04-30T03:23:16;93901.19;;;11.04;100.00
11077;BME280;5591;42.626;23.380;2023-04-30T03:25:44;93899.97;;;11.00;100.00
11077;BME280;5591;42.626;23.380;2023-04-30T03:28:11;93898.63;;;11.23;100.00
11077;BME280;5591;42.626;23.380;2023-04-30T03:30:37;93906.50;;;11.36;100.00
11077;BME280;5591;42.626;23.380;2023-04-30T03:33:04;93907.91;;;11.39;100.00
11077;BME280;5591;42.626;23.380;2023-04-30T03:35:32;93897.44;;;11.52;100.00
11077;BME280;5591;42.626;23.380;2023-04-30T03:37:59;93907.16;;;11.64;100.00
11077;BME280;5591;42.626;23.380;2023-04-30T03:40:26;93910.41;;;11.79;100.00
11077;BME280;5591;42.626;23.380;2023-04-30T03:42:54;93913.00;;;11.99;100.00
11077;BME280;5591;42.626;23.380;2023-04-30T03:45:21;93916.25;;;11.88;100.00
11077;BME280;5591;42.626;23.380;2023-04-30T03:47:48;93922.94;;;11.84;100.00
11077;BME280;5591;42.626;23.380;2023-04-30T03:50:16;93914.25;;;11.64;100.00
11077;BME280;5591;42.626;23.380;2023-04-30T03:52:43;93914.00;;;11.65;100.00
11077;BME280;5591;42.626;23.380;2023-04-30T03:55:11;93926.16;;;11.60;100.00
11077;BME280;5591;42.626;23.380;2023-04-30T03:57:38;93926.56;;;11.63;100.00
11077;BME280;5591;42.626;23.380;2023-04-30T04:00:08;93933.03;;;12.00;100.00
11077;BME280;5591;42.626;23.380;2023-04-30T04:02:35;93925.53;;;11.97;100.00
11077;BME280;5591;42.626;23.380;2023-04-30T04:05:03;93932.84;;;11.95;100.00
11077;BME280;5591;42.626;23.380;2023-04-30T04:07:30;93926.53;;;12.15;100.00
11077;BME280;5591;42.626;23.380;2023-04-30T04:09:57;93919.47;;;12.16;100.00
11077;BME280;5591;42.626;23.380;2023-04-30T04:12:24;93863.88;;;11.93;100.00
11077;BME280;5591;42.626;23.380;2023-04-30T04:14:51;93928.97;;;12.17;100.00
11077;BME280;5591;42.626;23.380;2023-04-30T04:17:19;93929.72;;;12.43;100.00
11077;BME280;5591;42.626;23.380;2023-04-30T04:19:46;93932.34;;;12.43;100.00
11077;BME280;5591;42.626;23.380;2023-04-30T04:22:12;93939.31;;;12.81;100.00
11077;BME280;5591;42.626;23.380;2023-04-30T04:24:39;93939.84;;;13.03;100.00
11077;BME280;5591;42.626;23.380;2023-04-30T04:27:06;93934.53;;;13.16;100.00
11077;BME280;5591;42.626;23.380;2023-04-30T04:29:33;93931.81;;;13.29;100.00
11077;BME280;5591;42.626;23.380;2023-04-30T04:32:00;93935.19;;;13.42;100.00
11077;BME280;5591;42.626;23.380;2023-04-30T04:34:30;93941.72;;;13.33;100.00
11077;BME280;5591;42.626;23.380;2023-04-30T04:36:57;93944.88;;;13.48;100.00
11077;BME280;5591;42.626;23.380;2023-04-30T04:39:23;93946.38;;;13.62;100.00
11077;BME280;5591;42.626;23.380;2023-04-30T04:41:50;93946.28;;;13.51;100.00
11077;BME280;5591;42.626;23.380;2023-04-30T04:44:17;93946.72;;;13.48;100.00
11077;BME280;5591;42.626;23.380;2023-04-30T04:46:44;93939.00;;;13.77;100.00
11077;BME280;5591;42.626;23.380;2023-04-30T04:49:11;93952.66;;;13.92;100.00
11077;BME280;5591;42.626;23.380;2023-04-30T04:51:39;93956.72;;;13.95;100.00
11077;BME280;5591;42.626;23.380;2023-04-30T04:54:06;93960.25;;;13.82;100.00
11077;BME280;5591;42.626;23.380;2023-04-30T04:56:33;93962.59;;;13.97;100.00
11077;BME280;5591;42.626;23.380;2023-04-30T04:59:00;93962.25;;;13.87;100.00
11077;BME280;5591;42.626;23.380;2023-04-30T05:01:26;93964.00;;;13.99;100.00
11077;BME280;5591;42.626;23.380;2023-04-30T05:03:53;93875.88;;;13.51;100.00
11077;BME280;5591;42.626;23.380;2023-04-30T05:06:20;93961.25;;;14.12;100.00
11077;BME280;5591;42.626;23.380;2023-04-30T05:08:48;93970.78;;;14.38;98.62
11077;BME280;5591;42.626;23.380;2023-04-30T05:11:15;93967.78;;;14.34;97.31
11077;BME280;5591;42.626;23.380;2023-04-30T05:13:42;93965.84;;;14.23;99.13
11077;BME280;5591;42.626;23.380;2023-04-30T05:16:08;93953.72;;;14.40;98.13
11077;BME280;5591;42.626;23.380;2023-04-30T05:18:35;93961.59;;;14.65;97.07
11077;BME280;5591;42.626;23.380;2023-04-30T05:21:02;93971.28;;;14.71;96.74
11077;BME280;5591;42.626;23.380;2023-04-30T05:23:29;93928.66;;;14.00;99.86
11077;BME280;5591;42.626;23.380;2023-04-30T05:25:58;93932.34;;;14.24;100.00
11077;BME280;5591;42.626;23.380;2023-04-30T05:28:24;93968.63;;;14.71;98.14
11077;BME280;5591;42.626;23.380;2023-04-30T05:30:51;93960.97;;;15.16;95.71
11077;BME280;5591;42.626;23.380;2023-04-30T05:33:18;93962.19;;;15.38;93.60
11077;BME280;5591;42.626;23.380;2023-04-30T05:35:45;93953.06;;;15.34;94.30
11077;BME280;5591;42.626;23.380;2023-04-30T05:38:11;93950.66;;;15.15;94.80
11077;BME280;5591;42.626;23.380;2023-04-30T05:40:39;93958.91;;;15.36;94.54
11077;BME280;5591;42.626;23.380;2023-04-30T05:43:07;93955.84;;;15.69;93.59
11077;BME280;5591;42.626;23.380;2023-04-30T05:45:34;93950.38;;;15.93;91.31
11077;BME280;5591;42.626;23.380;2023-04-30T05:48:01;93957.94;;;15.78;91.43
11077;BME280;5591;42.626;23.380;2023-04-30T05:50:27;93956.25;;;15.95;90.72
11077;BME280;5591;42.626;23.380;2023-04-30T05:52:54;93953.72;;;15.89;91.18
11077;BME280;5591;42.626;23.380;2023-04-30T05:55:21;93943.63;;;16.09;89.83
11077;BME280;5591;42.626;23.380;2023-04-30T05:57:48;93951.28;;;16.40;87.54
11077;BME280;5591;42.626;23.380;2023-04-30T06:00:16;93951.00;;;16.30;88.45
11077;BME280;5591;42.626;23.380;2023-04-30T06:02:43;93962.69;;;16.52;88.34
11077;BME280;5591;42.626;23.380;2023-04-30T06:05:10;93962.22;;;16.66;88.06
11077;BME280;5591;42.626;23.380;2023-04-30T06:07:37;93957.69;;;16.90;85.76
11077;BME280;5591;42.626;23.380;2023-04-30T06:10:05;93963.59;;;16.69;85.74
11077;BME280;5591;42.626;23.380;2023-04-30T06:12:32;93971.88;;;15.85;90.46
11077;BME280;5591;42.626;23.380;2023-04-30T06:14:59;93971.28;;;16.24;91.31
11077;BME280;5591;42.626;23.380;2023-04-30T06:17:27;93966.81;;;16.59;87.50
11077;BME280;5591;42.626;23.380;2023-04-30T06:19:54;93968.28;;;17.01;81.05
11077;BME280;5591;42.626;23.380;2023-04-30T06:22:22;93965.34;;;17.37;76.17
11077;BME280;5591;42.626;23.380;2023-04-30T06:24:49;93966.94;;;17.38;75.67
11077;BME280;5591;42.626;23.380;2023-04-30T06:27:16;93973.94;;;16.93;80.04
11077;BME280;5591;42.626;23.380;2023-04-30T06:29:43;93976.38;;;17.46;74.84
11077;BME280;5591;42.626;23.380;2023-04-30T06:32:10;93974.47;;;17.41;74.22
11077;BME280;5591;42.626;23.380;2023-04-30T06:34:38;93973.41;;;17.70;72.97
11077;BME280;5591;42.626;23.380;2023-04-30T06:37:04;93969.81;;;17.76;70.66
11077;BME280;5591;42.626;23.380;2023-04-30T06:39:31;93972.44;;;17.60;71.71
11077;BME280;5591;42.626;23.380;2023-04-30T06:41:58;93966.06;;;17.61;70.49
11077;BME280;5591;42.626;23.380;2023-04-30T06:44:25;93974.69;;;17.95;69.97
11077;BME280;5591;42.626;23.380;2023-04-30T06:46:52;93979.84;;;18.18;68.14
11077;BME280;5591;42.626;23.380;2023-04-30T06:49:19;93986.19;;;17.57;69.59
11077;BME280;5591;42.626;23.380;2023-04-30T06:51:47;93982.94;;;16.92;78.24
11077;BME280;5591;42.626;23.380;2023-04-30T06:54:14;93973.03;;;17.50;73.70
11077;BME280;5591;42.626;23.380;2023-04-30T06:56:41;93983.63;;;17.89;70.86
11077;BME280;5591;42.626;23.380;2023-04-30T06:59:08;93989.16;;;16.98;74.48
11077;BME280;5591;42.626;23.380;2023-04-30T07:01:35;93984.53;;;17.05;78.15
11077;BME280;5591;42.626;23.380;2023-04-30T07:04:01;93982.44;;;18.13;73.37
11077;BME280;5591;42.626;23.380;2023-04-30T07:06:28;93977.81;;;18.37;68.67
11077;BME280;5591;42.626;23.380;2023-04-30T07:08:56;93984.91;;;18.64;68.27
11077;BME280;5591;42.626;23.380;2023-04-30T07:11:23;93984.69;;;19.04;65.36
11077;BME280;5591;42.626;23.380;2023-04-30T07:13:50;93992.28;;;18.62;66.31
11077;BME280;5591;42.626;23.380;2023-04-30T07:16:17;93983.91;;;18.87;66.33
11077;BME280;5591;42.626;23.380;2023-04-30T07:18:44;93983.00;;;19.57;62.40
11077;BME280;5591;42.626;23.380;2023-04-30T07:21:13;93991.09;;;17.92;69.50
11077;BME280;5591;42.626;23.380;2023-04-30T07:23:40;93992.63;;;17.88;72.49
11077;BME280;5591;42.626;23.380;2023-04-30T07:26:08;93967.81;;;17.04;78.40
11077;BME280;5591;42.626;23.380;2023-04-30T07:28:35;93983.97;;;16.80;83.95
11077;BME280;5591;42.626;23.380;2023-04-30T07:31:01;94010.72;;;16.78;87.25
11077;BME280;5591;42.626;23.380;2023-04-30T07:33:28;93990.53;;;17.90;79.52
11077;BME280;5591;42.626;23.380;2023-04-30T07:35:55;93979.75;;;17.69;79.25
11077;BME280;5591;42.626;23.380;2023-04-30T07:38:23;93989.97;;;18.66;74.07
11077;BME280;5591;42.626;23.380;2023-04-30T07:40:49;93990.78;;;19.04;68.28
11077;BME280;5591;42.626;23.380;2023-04-30T07:43:17;93990.22;;;18.48;72.34
11077;BME280;5591;42.626;23.380;2023-04-30T07:45:44;93979.59;;;18.64;72.12
11077;BME280;5591;42.626;23.380;2023-04-30T07:48:13;93992.63;;;18.66;71.37
11077;BME280;5591;42.626;23.380;2023-04-30T07:50:40;93996.19;;;19.09;67.63
11077;BME280;5591;42.626;23.380;2023-04-30T07:53:07;93989.78;;;18.89;69.41
11077;BME280;5591;42.626;23.380;2023-04-30T07:55:34;93927.63;;;18.40;69.50
11077;BME280;5591;42.626;23.380;2023-04-30T07:58:01;94001.28;;;19.27;67.76
11077;BME280;5591;42.626;23.380;2023-04-30T08:00:29;93993.50;;;19.90;64.95
11077;BME280;5591;42.626;23.380;2023-04-30T08:02:57;93996.13;;;19.04;65.45
11077;BME280;5591;42.626;23.380;2023-04-30T08:05:24;93995.59;;;18.86;62.86
11077;BME280;5591;42.626;23.380;2023-04-30T08:07:51;93998.81;;;18.38;66.03
11077;BME280;5591;42.626;23.380;2023-04-30T08:10:18;93999.97;;;18.75;63.95
11077;BME280;5591;42.626;23.380;2023-04-30T08:12:45;94003.25;;;18.82;64.96
11077;BME280;5591;42.626;23.380;2023-04-30T08:15:12;94002.81;;;19.45;61.59
11077;BME280;5591;42.626;23.380;2023-04-30T08:17:40;93994.38;;;19.53;60.05
11077;BME280;5591;42.626;23.380;2023-04-30T08:20:07;93986.03;;;19.23;61.43
11077;BME280;5591;42.626;23.380;2023-04-30T08:22:35;93996.13;;;19.85;58.19
11077;BME280;5591;42.626;23.380;2023-04-30T08:25:01;93994.28;;;19.64;58.11
11077;BME280;5591;42.626;23.380;2023-04-30T08:27:30;93995.88;;;19.87;57.52
11077;BME280;5591;42.626;23.380;2023-04-30T08:29:57;93992.94;;;19.88;57.57
11077;BME280;5591;42.626;23.380;2023-04-30T08:32:24;93998.41;;;19.55;59.36
11077;BME280;5591;42.626;23.380;2023-04-30T08:34:53;93998.59;;;19.11;58.43
11077;BME280;5591;42.626;23.380;2023-04-30T08:37:20;93999.53;;;18.83;61.79
11077;BME280;5591;42.626;23.380;2023-04-30T08:39:46;94000.91;;;18.69;60.38
11077;BME280;5591;42.626;23.380;2023-04-30T08:42:14;93993.13;;;18.46;60.50
11077;BME280;5591;42.626;23.380;2023-04-30T08:44:43;93999.97;;;17.98;63.56
11077;BME280;5591;42.626;23.380;2023-04-30T08:47:11;94002.53;;;18.37;62.17
11077;BME280;5591;42.626;23.380;2023-04-30T08:49:39;94002.34;;;18.93;59.00
11077;BME280;5591;42.626;23.380;2023-04-30T08:52:07;93997.63;;;19.17;58.01
11077;BME280;5591;42.626;23.380;2023-04-30T08:54:35;93986.00;;;18.85;57.31
11077;BME280;5591;42.626;23.380;2023-04-30T08:57:02;94006.19;;;19.19;57.30
11077;BME280;5591;42.626;23.380;2023-04-30T08:59:29;93995.59;;;18.86;58.26
11077;BME280;5591;42.626;23.380;2023-04-30T09:01:56;93994.31;;;18.88;58.91
11077;BME280;5591;42.626;23.380;2023-04-30T09:04:25;93990.13;;;18.43;59.90
11077;BME280;5591;42.626;23.380;2023-04-30T09:06:52;93983.50;;;18.12;61.65
11077;BME280;5591;42.626;23.380;2023-04-30T09:09:27;93986.78;;;18.19;61.62
11077;BME280;5591;42.626;23.380;2023-04-30T09:12:09;93983.53;;;18.01;62.57
11077;BME280;5591;42.626;23.380;2023-04-30T09:14:37;93979.13;;;18.23;61.45
11077;BME280;5591;42.626;23.380;2023-04-30T09:17:04;93979.22;;;18.11;61.88
11077;BME280;5591;42.626;23.380;2023-04-30T09:19:33;93970.03;;;17.74;62.46
11077;BME280;5591;42.626;23.380;2023-04-30T09:22:17;93967.75;;;18.39;62.29
11077;BME280;5591;42.626;23.380;2023-04-30T09:24:47;93958.09;;;19.04;60.34
11077;BME280;5591;42.626;23.380;2023-04-30T09:27:16;93885.59;;;19.61;56.36
11077;BME280;5591;42.626;23.380;2023-04-30T09:29:43;93953.91;;;20.88;53.39
11077;BME280;5591;42.626;23.380;2023-04-30T09:32:10;93948.47;;;21.19;52.34
11077;BME280;5591;42.626;23.380;2023-04-30T09:34:37;93950.72;;;20.28;52.89
11077;BME280;5591;42.626;23.380;2023-04-30T09:37:04;93945.00;;;20.15;53.48
11077;BME280;5591;42.626;23.380;2023-04-30T09:39:31;93942.53;;;20.03;52.63
11077;BME280;5591;42.626;23.380;2023-04-30T09:42:07;93946.41;;;20.22;52.17
11077;BME280;5591;42.626;23.380;2023-04-30T09:44:36;93933.41;;;21.55;49.86
11077;BME280;5591;42.626;23.380;2023-04-30T09:47:04;93938.97;;;19.98;51.57
11077;BME280;5591;42.626;23.380;2023-04-30T09:49:30;93923.97;;;20.13;51.24
11077;BME280;5591;42.626;23.380;2023-04-30T09:51:58;93931.94;;;20.81;50.91
11077;BME280;5591;42.626;23.380;2023-04-30T09:54:26;93936.81;;;20.52;50.38
11077;BME280;5591;42.626;23.380;2023-04-30T09:56:54;93913.25;;;22.39;47.78
11077;BME280;5591;42.626;23.380;2023-04-30T09:59:27;93907.63;;;22.00;46.82
11077;BME280;5591;42.626;23.380;2023-04-30T10:01:57;93928.31;;;20.97;47.65
11077;BME280;5591;42.626;23.380;2023-04-30T10:04:26;93920.03;;;20.57;48.98
11077;BME280;5591;42.626;23.380;2023-04-30T10:06:56;93923.22;;;20.23;49.86
11077;BME280;5591;42.626;23.380;2023-04-30T10:09:25;93912.34;;;20.60;48.91
11077;BME280;5591;42.626;23.380;2023-04-30T10:11:55;93921.00;;;20.82;48.52
11077;BME280;5591;42.626;23.380;2023-04-30T10:14:26;93915.31;;;21.82;47.99
11077;BME280;5591;42.626;23.380;2023-04-30T10:16:58;93914.59;;;22.21;46.33
11077;BME280;5591;42.626;23.380;2023-04-30T10:19:30;93912.41;;;21.98;47.62
11077;BME280;5591;42.626;23.380;2023-04-30T10:21:58;93869.41;;;22.50;45.73
11077;BME280;5591;42.626;23.380;2023-04-30T10:24:26;93909.47;;;23.14;45.56
11077;BME280;5591;42.626;23.380;2023-04-30T10:26:54;93901.22;;;23.64;44.42
11077;BME280;5591;42.626;23.380;2023-04-30T10:29:24;93912.94;;;23.05;44.81
11077;BME280;5591;42.626;23.380;2023-04-30T10:31:52;93906.16;;;21.53;46.06
11077;BME280;5591;42.626;23.380;2023-04-30T10:34:27;93905.09;;;20.97;46.93
11077;BME280;5591;42.626;23.380;2023-04-30T10:36:59;93948.88;;;19.54;50.69
11077;BME280;5591;42.626;23.380;2023-04-30T10:39:32;93940.47;;;18.43;54.85
11077;BME280;5591;42.626;23.380;2023-04-30T10:42:01;93970.00;;;17.58;63.05
11077;BME280;5591;42.626;23.380;2023-04-30T10:44:32;93957.97;;;17.28;72.54
11077;BME280;5591;42.626;23.380;2023-04-30T10:46:59;93979.38;;;16.41;84.52
11077;BME280;5591;42.626;23.380;2023-04-30T10:49:27;93995.22;;;15.29;95.33
11077;BME280;5591;42.626;23.380;2023-04-30T10:51:57;93986.63;;;14.80;100.00
11077;BME280;5591;42.626;23.380;2023-04-30T10:54:26;93983.25;;;14.91;100.00
11077;BME280;5591;42.626;23.380;2023-04-30T10:56:54;93979.03;;;15.37;100.00
11077;BME280;5591;42.626;23.380;2023-04-30T10:59:35;93961.88;;;15.87;100.00
11077;BME280;5591;42.626;23.380;2023-04-30T11:02:02;93973.25;;;16.29;100.00
11077;BME280;5591;42.626;23.380;2023-04-30T11:04:29;93964.38;;;16.92;97.97
11077;BME280;5591;42.626;23.380;2023-04-30T11:07:08;93965.06;;;17.78;91.22
11077;BME280;5591;42.626;23.380;2023-04-30T11:09:39;93941.88;;;17.73;90.94
11077;BME280;5591;42.626;23.380;2023-04-30T11:12:11;93957.41;;;18.75;84.92
11077;BME280;5591;42.626;23.380;2023-04-30T11:14:44;93904.88;;;19.47;74.37
11077;BME280;5591;42.626;23.380;2023-04-30T11:17:13;93948.31;;;20.58;68.49
11077;BME280;5591;42.626;23.380;2023-04-30T11:19:47;93945.44;;;21.01;61.17
11077;BME280;5591;42.626;23.380;2023-04-30T11:22:20;93940.69;;;21.74;60.47
11077;BME280;5591;42.626;23.380;2023-04-30T11:24:52;93932.78;;;22.29;59.83
11077;BME280;5591;42.626;23.380;2023-04-30T11:27:19;93931.13;;;23.91;54.02
11077;BME280;5591;42.626;23.380;2023-04-30T11:29:48;93873.06;;;24.77;48.65
11077;BME280;5591;42.626;23.380;2023-04-30T11:32:17;93926.22;;;24.03;46.15
11077;BME280;5591;42.626;23.380;2023-04-30T11:34:44;93930.41;;;23.66;47.57
11077;BME280;5591;42.626;23.380;2023-04-30T11:37:14;93938.38;;;22.13;48.61
11077;BME280;5591;42.626;23.380;2023-04-30T11:39:41;93862.94;;;21.66;48.78
11077;BME280;5591;42.626;23.380;2023-04-30T11:42:08;93936.28;;;22.70;47.85
11077;BME280;5591;42.626;23.380;2023-04-30T11:44:35;93927.38;;;24.36;45.47
11077;BME280;5591;42.626;23.380;2023-04-30T11:47:04;93918.81;;;26.50;41.19
11077;BME280;5591;42.626;23.380;2023-04-30T11:49:31;93915.97;;;27.05;39.17
11077;BME280;5591;42.626;23.380;2023-04-30T11:51:58;93917.06;;;25.80;41.80
11077;BME280;5591;42.626;23.380;2023-04-30T11:54:25;93918.53;;;24.97;45.21
11077;BME280;5591;42.626;23.380;2023-04-30T11:56:52;93861.16;;;26.32;44.10
11077;BME280;5591;42.626;23.380;2023-04-30T11:59:25;93920.38;;;26.69;43.23
11077;BME280;5591;42.626;23.380;2023-04-30T12:01:52;93915.97;;;26.04;43.85
11077;BME280;5591;42.626;23.380;2023-04-30T12:04:21;93921.94;;;26.89;42.87
11077;BME280;5591;42.626;23.380;2023-04-30T12:06:48;93923.34;;;27.32;42.44
11077;BME280;5591;42.626;23.380;2023-04-30T12:09:15;93918.91;;;26.40;43.23
11077;BME280;5591;42.626;23.380;2023-04-30T12:11:41;93923.28;;;28.26;41.70
11077;BME280;5591;42.626;23.380;2023-04-30T12:14:10;93917.66;;;30.41;37.84
11077;BME280;5591;42.626;23.380;2023-04-30T12:16:41;93913.66;;;29.74;37.57
11077;BME280;5591;42.626;23.380;2023-04-30T12:19:09;93916.97;;;29.62;37.79
11077;BME280;5591;42.626;23.380;2023-04-30T12:21:38;93919.88;;;30.56;36.52
11077;BME280;5591;42.626;23.380;2023-04-30T12:24:06;93914.53;;;28.56;39.69
11077;BME280;5591;42.626;23.380;2023-04-30T12:26:34;93928.34;;;27.52;40.25
11077;BME280;5591;42.626;23.380;2023-04-30T12:29:03;93928.09;;;26.02;42.99
11077;BME280;5591;42.626;23.380;2023-04-30T12:31:31;93923.34;;;23.90;46.93
11077;BME280;5591;42.626;23.380;2023-04-30T12:34:02;93952.78;;;23.36;48.60
11077;BME280;5591;42.626;23.380;2023-04-30T12:36:30;93956.88;;;22.69;53.52
11077;BME280;5591;42.626;23.380;2023-04-30T12:39:09;93947.94;;;21.89;58.04
11077;BME280;5591;42.626;23.380;2023-04-30T12:41:39;93945.63;;;22.82;57.35
11077;BME280;5591;42.626;23.380;2023-04-30T12:44:16;93948.56;;;22.36;59.45
11077;BME280;5591;42.626;23.380;2023-04-30T12:46:44;93967.53;;;20.96;66.28
11077;BME280;5591;42.626;23.380;2023-04-30T12:49:11;93863.34;;;20.76;69.13
11077;BME280;5591;42.626;23.380;2023-04-30T12:51:41;93952.13;;;20.67;69.17
11077;BME280;5591;42.626;23.380;2023-04-30T12:54:09;93958.13;;;21.25;67.96
11077;BME280;5591;42.626;23.380;2023-04-30T12:56:36;93963.03;;;21.02;67.28
11077;BME280;5591;42.626;23.380;2023-04-30T12:59:13;93950.94;;;21.31;65.75
11077;BME280;5591;42.626;23.380;2023-04-30T13:01:43;93960.19;;;21.65;62.33
11077;BME280;5591;42.626;23.380;2023-04-30T13:04:10;93950.97;;;22.37;60.14